Terminal Aerodrome Forecast
Issued by NWS

Home | Current Version | Previous Version | Graphics & Text | Print | Product List | Glossary On
Versions: 1 2 3 4 5 6 7 8 9 10 11 12 13 14 15 16 17 18 19 20 21 22 23 24 25 26 27 28 29 30 31 32 33
000
FTUS43 KLOT 031400 AAB
TAFDPA
TAF AMD
KDPA 031404Z 0314/0412 16014G22KT 1 1/2SM -SNPL BR SCT007 OVC025
      TEMPO 0314/0315 1SM -FZDZ BR VV006
     FM031500 18014G22KT 1SM -FZRAPL BR BKN006 OVC015
     FM031700 19014G23KT 4SM -FZDZ BR OVC008
     FM032100 26014G22KT P6SM OVC015
     FM040200 29013G20KT P6SM OVC025=

USA.gov is the U.S. government's official web portal to all federal, state and local government web resources and services.